createdAt,value
2022-08-21T00:00:44.389Z,53489.98
2022-08-21T00:01:47.416Z,53305.59
2022-08-21T00:02:50.452Z,53478.96
2022-08-21T00:03:53.395Z,53501.00
2022-08-21T00:04:57.667Z,53511.03
2022-08-21T00:06:00.785Z,53405.80
2022-08-21T00:07:03.769Z,53324.63
2022-08-21T00:08:06.641Z,53376.74
2022-08-21T00:09:09.719Z,53551.11
2022-08-21T00:10:12.902Z,53861.80
2022-08-21T00:11:15.978Z,53937.97
2022-08-21T00:12:19.062Z,53758.57
2022-08-21T00:13:22.135Z,53583.18
2022-08-21T00:14:25.320Z,53659.35
2022-08-21T00:15:28.302Z,53528.06
2022-08-21T00:16:31.377Z,53412.82
2022-08-21T00:17:34.360Z,53322.62
2022-08-21T00:18:37.123Z,53372.73
2022-08-21T00:19:39.901Z,53476.95
2022-08-21T00:20:42.569Z,53466.93
2022-08-21T00:21:45.550Z,53433.86
2022-08-21T00:22:48.214Z,53518.04
2022-08-21T00:23:54.072Z,53531.07
2022-08-21T00:24:56.831Z,53457.91
2022-08-21T00:25:59.703Z,53376.74
2022-08-21T00:27:02.579Z,53603.23
2022-08-21T00:28:05.465Z,53603.23
2022-08-21T00:29:08.227Z,53801.67
2022-08-21T00:30:11.102Z,53918.93
2022-08-21T00:31:15.412Z,53577.17
2022-08-21T00:32:18.388Z,53380.75
2022-08-21T00:33:21.267Z,53297.57
2022-08-21T00:34:24.036Z,53376.74
2022-08-21T00:35:29.880Z,53325.63
2022-08-21T00:36:32.855Z,53437.87
2022-08-21T00:37:35.726Z,53495.99
2022-08-21T00:38:41.482Z,53528.06
2022-08-21T00:39:44.530Z,53559.13
2022-08-21T00:40:47.420Z,53686.41
2022-08-21T00:41:59.208Z,53841.75
2022-08-21T00:43:02.561Z,53654.34
2022-08-21T00:44:05.879Z,53538.09
2022-08-21T00:45:08.964Z,53395.78
2022-08-21T00:46:12.242Z,53342.66
2022-08-21T00:47:15.527Z,53195.36
2022-08-21T00:48:18.502Z,53106.17
2022-08-21T00:49:21.478Z,53040.04
2022-08-21T00:50:24.558Z,53238.45
2022-08-21T00:51:27.543Z,53337.66
2022-08-21T00:52:30.616Z,53319.62
2022-08-21T00:53:33.591Z,53142.25
2022-08-21T00:54:39.341Z,53092.14
2022-08-21T00:55:43.850Z,53232.43
2022-08-21T00:56:46.825Z,53323.62
2022-08-21T00:57:50.376Z,53379.74
2022-08-21T00:58:54.915Z,53416.82
2022-08-21T00:59:58.113Z,53350.68
2022-08-21T01:01:01.315Z,53178.32
2022-08-21T01:02:05.607Z,53068.09
2022-08-21T01:03:09.008Z,53173.31
2022-08-21T01:04:12.068Z,53306.59
2022-08-21T01:05:15.657Z,53378.74
2022-08-21T01:06:18.737Z,53429.85
2022-08-21T01:07:21.922Z,53332.64
2022-08-21T01:08:26.434Z,53164.29
2022-08-21T01:09:29.616Z,52910.77
2022-08-21T01:10:32.493Z,52908.77
2022-08-21T01:11:36.901Z,52953.86
2022-08-21T01:12:39.977Z,52993.94
2022-08-21T01:13:42.854Z,53015.98
2022-08-21T01:14:45.633Z,53032.02
2022-08-21T01:15:48.304Z,53009.97
2022-08-21T01:16:51.171Z,52959.87
2022-08-21T01:17:54.254Z,52982.92
2022-08-21T01:18:57.123Z,53034.02
2022-08-21T01:20:00.141Z,52984.92
2022-08-21T01:21:02.985Z,52909.77
2022-08-21T01:22:05.855Z,53025.00
2022-08-21T01:23:08.837Z,53121.20
2022-08-21T01:24:11.808Z,53164.29
2022-08-21T01:25:14.693Z,53070.10
2022-08-21T01:26:20.214Z,53292.56
2022-08-21T01:27:23.201Z,53159.28
2022-08-21T01:28:25.967Z,52984.92
2022-08-21T01:29:28.842Z,52957.87
2022-08-21T01:30:32.064Z,52921.79
2022-08-21T01:31:35.101Z,52871.70
2022-08-21T01:32:40.638Z,52899.75
2022-08-21T01:33:46.409Z,52865.68
2022-08-21T01:34:49.051Z,52852.66
2022-08-21T01:35:52.132Z,52773.50
2022-08-21T01:36:54.811Z,52889.73
2022-08-21T01:37:57.674Z,52904.76
2022-08-21T01:39:00.555Z,53002.96
2022-08-21T01:40:03.377Z,53128.21
2022-08-21T01:41:06.404Z,53135.23
2022-08-21T01:42:12.348Z,52977.91
2022-08-21T01:43:15.429Z,52952.86
2022-08-21T01:44:18.609Z,52881.71
2022-08-21T01:45:21.793Z,52896.74
2022-08-21T01:46:24.770Z,52879.71
2022-08-21T01:47:28.053Z,52927.80
2022-08-21T01:48:31.031Z,52878.71
2022-08-21T01:49:36.671Z,52943.84
2022-08-21T01:50:39.646Z,52973.90
2022-08-21T01:51:42.725Z,53068.09
2022-08-21T01:52:48.676Z,53179.32
2022-08-21T01:53:57.586Z,53233.43
2022-08-21T01:55:00.461Z,53097.15
2022-08-21T01:56:03.233Z,53013.98
2022-08-21T01:57:06.313Z,52978.91
2022-08-21T01:58:09.295Z,52962.88
2022-08-21T01:59:12.271Z,52922.80
2022-08-21T02:00:15.343Z,52832.62
2022-08-21T02:01:18.853Z,52923.80
2022-08-21T02:02:21.710Z,52933.82
2022-08-21T02:03:31.219Z,52910.77
2022-08-21T02:04:29.203Z,52998.95
2022-08-21T02:05:32.094Z,52955.86
2022-08-21T02:06:35.461Z,52956.86
2022-08-21T02:07:38.436Z,52989.93
2022-08-21T02:08:43.983Z,53006.97
2022-08-21T02:09:50.056Z,53013.98
2022-08-21T02:10:53.892Z,52969.89
2022-08-21T02:11:59.559Z,52948.85
2022-08-21T02:13:02.340Z,53018.99
2022-08-21T02:14:05.007Z,52969.89
2022-08-21T02:15:07.989Z,52949.85
2022-08-21T02:16:11.064Z,52954.86
2022-08-21T02:18:33.093Z,52872.70
2022-08-21T02:19:40.266Z,52865.68
2022-08-21T02:20:40.684Z,52943.84
2022-08-21T02:21:43.664Z,52936.82
2022-08-21T02:22:46.544Z,52879.71
2022-08-21T02:23:49.413Z,52943.84
2022-08-21T02:24:55.123Z,52998.95
2022-08-21T02:25:56.491Z,52902.76
2022-08-21T02:26:59.364Z,52906.77
2022-08-21T02:28:02.156Z,52975.91
2022-08-21T02:29:05.115Z,53003.96
2022-08-21T02:30:08.195Z,52982.92
2022-08-21T02:31:11.274Z,52921.79
2022-08-21T02:32:15.798Z,52853.66
2022-08-21T02:33:19.070Z,52858.67
2022-08-21T02:34:21.947Z,52853.66
2022-08-21T02:35:26.455Z,52887.73
2022-08-21T02:36:29.535Z,52849.65
2022-08-21T02:37:32.512Z,52817.59
2022-08-21T02:38:35.704Z,52825.60
2022-08-21T02:39:39.052Z,52809.57
2022-08-21T02:40:43.768Z,52812.58
2022-08-21T02:41:46.682Z,52883.72
2022-08-21T02:42:49.344Z,52937.83
2022-08-21T02:43:52.631Z,52876.70
2022-08-21T02:44:58.472Z,52874.70
2022-08-21T02:46:01.450Z,52857.67
2022-08-21T02:47:04.223Z,52898.75
2022-08-21T02:48:06.903Z,52919.79
2022-08-21T02:49:10.077Z,52880.71
2022-08-21T02:50:13.054Z,52866.68
2022-08-21T02:51:16.026Z,52859.67
2022-08-21T02:52:19.106Z,52845.64
2022-08-21T02:53:22.087Z,52815.58
2022-08-21T02:54:25.188Z,52916.79
2022-08-21T02:55:28.142Z,52957.87
2022-08-21T02:56:31.734Z,52964.88
2022-08-21T02:57:34.737Z,52891.73
2022-08-21T02:58:37.694Z,52889.73
2022-08-21T02:59:40.776Z,52863.68
2022-08-21T03:00:43.639Z,52855.66
2022-08-21T03:01:46.864Z,52797.55
2022-08-21T03:02:49.599Z,52843.64
2022-08-21T03:03:52.675Z,52801.55
2022-08-21T03:04:55.651Z,52834.62
2022-08-21T03:05:58.425Z,52841.63
2022-08-21T03:07:01.306Z,52882.71
2022-08-21T03:08:03.967Z,52896.74
2022-08-21T03:09:06.639Z,52873.70
2022-08-21T03:10:22.006Z,52881.71
2022-08-21T03:11:25.087Z,52892.73
2022-08-21T03:12:29.949Z,52851.65
2022-08-21T03:13:32.779Z,52865.68
2022-08-21T03:14:35.753Z,52875.70
2022-08-21T03:15:38.732Z,52874.70
2022-08-21T03:16:41.607Z,52843.64
2022-08-21T03:17:44.483Z,52877.71
2022-08-21T03:18:47.156Z,52869.69
2022-08-21T03:19:49.924Z,52851.65
2022-08-21T03:20:54.236Z,52884.72
2022-08-21T03:21:57.006Z,52901.75
2022-08-21T03:22:59.995Z,52899.75
2022-08-21T03:24:04.246Z,52840.63
2022-08-21T03:25:07.369Z,52839.63
2022-08-21T03:26:11.679Z,52883.72
2022-08-21T03:27:14.656Z,52824.60
2022-08-21T03:28:17.629Z,52815.58
2022-08-21T03:29:20.722Z,52807.57
2022-08-21T03:30:23.802Z,52836.62
2022-08-21T03:31:27.073Z,52851.65
2022-08-21T03:32:30.155Z,52900.75
2022-08-21T03:33:33.231Z,52895.74
2022-08-21T03:34:36.831Z,52873.70
2022-08-21T03:35:39.698Z,52873.70
2022-08-21T03:36:43.084Z,52884.72
2022-08-21T03:37:45.963Z,52909.77
2022-08-21T03:38:48.730Z,52886.72
2022-08-21T03:39:51.680Z,52862.68
2022-08-21T03:40:54.381Z,52858.67
2022-08-21T03:41:57.255Z,52881.71
2022-08-21T03:43:00.037Z,52875.70
2022-08-21T03:44:02.899Z,52883.72
2022-08-21T03:45:05.679Z,52857.67
2022-08-21T03:46:08.858Z,52883.72
2022-08-21T03:47:12.141Z,52887.73
2022-08-21T03:48:15.114Z,52869.69
2022-08-21T03:49:17.994Z,52887.73
2022-08-21T03:50:21.076Z,52906.77
2022-08-21T03:51:24.258Z,52899.75
2022-08-21T03:52:27.536Z,52876.70
2022-08-21T03:53:30.513Z,52888.73
2022-08-21T03:54:33.385Z,52875.70
2022-08-21T03:55:36.368Z,52876.70
2022-08-21T03:56:39.343Z,52867.68
2022-08-21T03:57:42.427Z,52881.71
2022-08-21T03:58:45.298Z,52890.73
2022-08-21T03:59:48.170Z,52884.72
2022-08-21T04:00:50.844Z,52859.67
2022-08-21T04:01:53.794Z,52879.71
2022-08-21T04:02:59.829Z,52935.82
2022-08-21T04:04:02.945Z,53008.97
2022-08-21T04:05:05.819Z,53045.04
2022-08-21T04:06:08.693Z,53038.03
2022-08-21T04:07:12.489Z,53053.06
2022-08-21T04:08:15.875Z,53052.06
2022-08-21T04:09:18.957Z,53086.13
2022-08-21T04:10:21.939Z,53093.14
2022-08-21T04:11:25.321Z,53121.20
2022-08-21T04:12:28.302Z,53125.21
2022-08-21T04:13:31.481Z,53144.25
2022-08-21T04:14:34.457Z,53124.21
2022-08-21T04:15:37.442Z,53139.24
2022-08-21T04:16:40.411Z,53170.30
2022-08-21T04:17:46.258Z,53203.37
2022-08-21T04:18:49.031Z,53228.42
2022-08-21T04:19:54.017Z,53222.41
2022-08-21T04:20:56.312Z,53187.34
2022-08-21T04:21:59.085Z,53216.40
2022-08-21T04:23:01.755Z,53260.49
2022-08-21T04:24:07.596Z,53257.48
2022-08-21T04:25:10.473Z,53198.36
2022-08-21T04:26:13.243Z,53136.23
2022-08-21T04:27:19.085Z,53133.23
2022-08-21T04:28:23.189Z,53120.20
2022-08-21T04:29:26.582Z,53184.33
2022-08-21T04:30:29.369Z,53210.39
2022-08-21T04:31:32.124Z,53219.41
2022-08-21T04:32:34.793Z,53216.40
2022-08-21T04:33:37.667Z,53190.34
2022-08-21T04:34:40.852Z,53204.37
2022-08-21T04:35:43.930Z,53177.32
2022-08-21T04:36:46.803Z,53197.36
2022-08-21T04:37:49.684Z,53217.40
2022-08-21T04:38:58.083Z,53211.39
2022-08-21T04:40:01.240Z,53243.46
2022-08-21T04:41:04.136Z,53222.41
2022-08-21T04:42:06.806Z,53243.46
2022-08-21T04:43:09.887Z,53210.39
2022-08-21T04:44:15.529Z,53198.36
2022-08-21T04:45:18.814Z,53244.46
2022-08-21T04:46:21.785Z,53244.46
2022-08-21T04:47:24.660Z,53192.35
2022-08-21T04:48:29.182Z,53188.34
2022-08-21T04:49:32.369Z,53232.43
2022-08-21T04:50:35.649Z,53268.51
2022-08-21T04:51:38.513Z,53261.50
2022-08-21T04:52:41.497Z,53269.51
2022-08-21T04:53:44.367Z,53281.54
2022-08-21T04:54:47.039Z,53252.48
2022-08-21T04:55:50.421Z,53209.38
2022-08-21T04:56:53.196Z,53209.38
2022-08-21T04:59:14.927Z,53191.35
2022-08-21T05:00:18.309Z,53257.48
2022-08-21T05:01:21.449Z,53223.41
2022-08-21T05:02:24.366Z,53229.43
2022-08-21T05:03:27.349Z,53218.40
2022-08-21T05:04:30.229Z,53261.50
2022-08-21T05:05:33.087Z,53303.58
2022-08-21T05:06:36.383Z,53258.49
2022-08-21T05:07:42.052Z,53232.43
2022-08-21T05:08:43.973Z,53253.48
2022-08-21T05:09:46.846Z,53230.43
2022-08-21T05:10:49.721Z,53213.39
2022-08-21T05:11:53.003Z,53196.36
2022-08-21T05:12:55.775Z,53154.27
2022-08-21T05:13:58.647Z,53198.36
2022-08-21T05:15:01.526Z,53209.38
2022-08-21T05:16:04.301Z,53283.54
2022-08-21T05:17:08.814Z,53320.62
2022-08-21T05:18:11.581Z,53260.49
2022-08-21T05:19:14.664Z,53305.59
2022-08-21T05:20:17.634Z,53314.61
2022-08-21T05:21:20.513Z,53337.66
2022-08-21T05:22:23.489Z,53310.60
2022-08-21T05:23:26.366Z,53312.60
2022-08-21T05:24:29.135Z,53268.51
2022-08-21T05:25:32.316Z,53235.44
2022-08-21T05:26:46.237Z,53241.45
2022-08-21T05:27:44.517Z,53220.41
2022-08-21T05:28:47.184Z,53260.49
2022-08-21T05:29:50.169Z,53266.50
2022-08-21T05:30:53.242Z,53331.64
2022-08-21T05:31:56.322Z,53358.70
2022-08-21T05:32:59.413Z,53414.82
2022-08-21T05:34:02.382Z,53398.79
2022-08-21T05:35:05.978Z,53368.72
2022-08-21T05:36:09.055Z,53364.71
2022-08-21T05:37:11.924Z,53364.71
2022-08-21T05:38:18.195Z,53327.63
2022-08-21T05:39:19.722Z,53394.77
2022-08-21T05:40:23.460Z,53361.71
2022-08-21T05:41:26.597Z,53337.66
2022-08-21T05:42:29.679Z,53327.63
2022-08-21T05:43:32.772Z,53379.74
2022-08-21T05:44:35.470Z,53421.83
2022-08-21T05:45:42.707Z,53406.80
2022-08-21T05:46:43.631Z,53428.85
2022-08-21T05:47:46.509Z,53488.98
2022-08-21T05:48:49.597Z,53480.96
2022-08-21T05:49:52.461Z,53524.05
2022-08-21T05:50:55.132Z,53535.08
2022-08-21T05:51:57.813Z,53526.06
2022-08-21T05:53:00.680Z,53498.00
2022-08-21T05:54:04.984Z,53579.18
2022-08-21T05:55:07.655Z,53549.11
2022-08-21T05:56:13.399Z,53528.06
2022-08-21T05:57:16.069Z,53475.95
2022-08-21T05:58:18.836Z,53490.98
2022-08-21T05:59:21.917Z,53462.92
2022-08-21T06:00:24.792Z,53450.89
2022-08-21T06:01:27.569Z,53484.97
2022-08-21T06:02:33.311Z,53501.00
2022-08-21T06:03:35.971Z,53584.18
2022-08-21T06:04:38.949Z,53538.09
2022-08-21T06:06:00.076Z,53572.16
2022-08-21T06:07:02.728Z,53527.06
2022-08-21T06:08:05.399Z,53537.08
2022-08-21T06:09:08.063Z,53547.11
2022-08-21T06:10:10.944Z,53588.19
2022-08-21T06:11:13.609Z,53595.21
2022-08-21T06:12:16.279Z,53596.21
2022-08-21T06:13:18.946Z,53637.30
2022-08-21T06:14:21.819Z,53619.26
2022-08-21T06:15:24.700Z,53581.18
2022-08-21T06:16:27.377Z,53612.25
2022-08-21T06:17:30.041Z,53584.18
2022-08-21T06:18:32.812Z,53598.21
2022-08-21T06:19:35.584Z,53611.25
2022-08-21T06:20:38.459Z,53560.13
2022-08-21T06:21:41.124Z,53511.03
2022-08-21T06:22:43.796Z,53514.03
2022-08-21T06:23:46.465Z,53488.98
2022-08-21T06:24:49.249Z,53550.11
2022-08-21T06:25:52.110Z,53553.12
2022-08-21T06:26:56.418Z,53581.18
2022-08-21T06:27:59.400Z,53627.28
2022-08-21T06:29:02.167Z,53605.23
2022-08-21T06:30:04.946Z,53601.22
2022-08-21T06:31:07.816Z,53682.40
2022-08-21T06:32:10.383Z,53640.31
2022-08-21T06:33:13.358Z,53668.37
2022-08-21T06:34:17.675Z,53699.44
2022-08-21T06:35:20.549Z,53697.43
2022-08-21T06:36:23.628Z,53728.50
2022-08-21T06:37:27.419Z,53739.53
2022-08-21T06:38:32.461Z,53749.55
2022-08-21T06:39:35.554Z,53787.64
2022-08-21T06:40:43.739Z,53815.70
2022-08-21T06:41:44.461Z,53871.82
2022-08-21T06:42:47.930Z,53832.73
2022-08-21T06:43:50.706Z,53828.73
2022-08-21T06:44:53.488Z,53839.75
2022-08-21T06:45:56.148Z,53832.73
2022-08-21T06:46:58.925Z,53847.77
2022-08-21T06:48:01.799Z,53882.85
2022-08-21T06:49:04.575Z,53895.88
2022-08-21T06:50:08.981Z,53886.86
2022-08-21T06:51:11.650Z,53895.88
2022-08-21T06:52:14.532Z,53939.98
2022-08-21T06:53:17.304Z,53962.03
2022-08-21T06:54:20.068Z,54001.12
2022-08-21T06:55:25.359Z,54031.19
2022-08-21T06:56:27.146Z,54100.35
2022-08-21T06:57:30.032Z,54048.23
2022-08-21T06:58:32.694Z,54074.29
2022-08-21T06:59:35.369Z,54104.36
2022-08-21T07:00:38.068Z,54143.45
2022-08-21T07:01:40.877Z,54121.39
2022-08-21T07:02:43.889Z,54097.34
2022-08-21T07:03:46.661Z,54095.33
2022-08-21T07:04:49.458Z,54086.31
2022-08-21T07:05:52.301Z,54105.36
2022-08-21T07:06:55.084Z,54111.37
2022-08-21T07:07:58.053Z,54108.36
2022-08-21T07:09:00.829Z,54080.30
2022-08-21T07:10:03.496Z,54140.44
2022-08-21T07:11:06.168Z,54175.52
2022-08-21T07:12:08.943Z,54168.50
2022-08-21T07:13:11.915Z,54197.57
2022-08-21T07:14:20.411Z,54200.58
2022-08-21T07:15:19.301Z,54248.69
2022-08-21T07:16:22.280Z,54234.66
2022-08-21T07:17:25.252Z,54259.72
2022-08-21T07:18:28.541Z,54273.75
2022-08-21T07:19:31.525Z,54336.90
2022-08-21T07:20:34.393Z,54364.96
2022-08-21T07:21:37.471Z,54389.02
2022-08-21T07:22:40.346Z,54429.12
2022-08-21T07:23:43.528Z,54458.19
2022-08-21T07:24:46.505Z,54480.24
2022-08-21T07:25:49.378Z,54541.39
2022-08-21T07:26:52.151Z,54573.47
2022-08-21T07:27:55.026Z,54569.46
2022-08-21T07:28:58.108Z,54623.59
2022-08-21T07:30:00.774Z,54575.47
2022-08-21T07:31:03.654Z,54599.53
2022-08-21T07:32:06.425Z,54602.54
2022-08-21T07:33:09.093Z,54652.66
2022-08-21T07:34:12.281Z,54658.68
2022-08-21T07:35:15.250Z,54684.74
2022-08-21T07:36:18.432Z,54685.74
2022-08-21T07:37:21.518Z,54716.82
2022-08-21T07:38:24.385Z,54767.95
2022-08-21T07:39:27.584Z,54791.00
2022-08-21T07:40:30.665Z,54785.99
2022-08-21T07:41:33.737Z,54828.09
2022-08-21T07:42:36.809Z,54890.25
2022-08-21T07:43:46.022Z,54913.31
2022-08-21T07:44:44.507Z,54922.33
2022-08-21T07:45:47.584Z,54930.35
2022-08-21T07:46:50.254Z,54969.45
2022-08-21T07:47:57.151Z,54950.40
2022-08-21T07:48:57.331Z,54936.37
2022-08-21T07:50:00.209Z,54911.30
2022-08-21T07:51:02.977Z,54862.18
2022-08-21T07:52:05.849Z,54868.20
2022-08-21T07:53:08.625Z,54901.28
2022-08-21T07:54:11.494Z,54971.46
2022-08-21T07:55:16.117Z,54958.42
2022-08-21T07:56:18.887Z,54997.52
2022-08-21T07:57:21.873Z,55019.58
2022-08-21T07:58:25.048Z,55047.65
2022-08-21T07:59:28.227Z,55097.78
2022-08-21T08:00:31.210Z,55095.77
2022-08-21T08:01:34.205Z,55083.74
2022-08-21T08:02:37.156Z,55101.79
2022-08-21T08:03:39.928Z,55103.79
2022-08-21T08:04:50.647Z,55075.72
2022-08-21T08:05:47.111Z,55097.78
2022-08-21T08:06:50.291Z,55048.65
2022-08-21T08:07:53.165Z,55093.77
2022-08-21T08:08:56.148Z,55109.81
2022-08-21T08:09:58.923Z,55093.77
2022-08-21T08:11:01.796Z,55110.81
2022-08-21T08:12:04.567Z,55121.84
2022-08-21T08:13:10.564Z,55111.81
2022-08-21T08:14:11.953Z,55148.91
2022-08-21T08:15:14.933Z,55126.85
2022-08-21T08:16:17.911Z,55174.98
2022-08-21T08:17:20.989Z,55159.94
2022-08-21T08:18:23.657Z,55166.96
2022-08-21T08:19:26.528Z,55191.02
2022-08-21T08:20:29.711Z,55157.93
2022-08-21T08:21:32.816Z,55187.01
2022-08-21T08:22:37.197Z,55185.00
2022-08-21T08:23:40.176Z,55198.04
2022-08-21T08:24:43.566Z,55183.00
2022-08-21T08:25:46.434Z,55204.05
2022-08-21T08:26:53.993Z,55239.14
2022-08-21T08:27:54.034Z,55251.17
2022-08-21T08:28:56.911Z,55294.29
2022-08-21T08:29:59.985Z,55301.30
2022-08-21T08:31:02.871Z,55320.36
2022-08-21T08:32:06.044Z,55325.37
2022-08-21T08:33:08.815Z,55317.35
2022-08-21T08:34:11.792Z,55312.34
2022-08-21T08:35:16.098Z,55364.47
2022-08-21T08:36:19.767Z,55338.40
2022-08-21T08:37:23.556Z,55351.44
2022-08-21T08:38:27.689Z,55365.47
2022-08-21T08:39:30.769Z,55357.45
2022-08-21T08:40:34.162Z,55382.52
2022-08-21T08:41:37.238Z,55365.47
2022-08-21T08:42:41.656Z,55368.48
2022-08-21T08:43:44.951Z,55410.59
2022-08-21T08:44:48.011Z,55363.47
2022-08-21T08:45:51.002Z,55374.50
2022-08-21T08:46:53.763Z,55381.52
2022-08-21T08:47:58.582Z,55389.54
2022-08-21T08:49:01.569Z,55444.68
2022-08-21T08:50:05.864Z,55404.58
2022-08-21T08:51:08.871Z,55445.68
2022-08-21T08:52:11.715Z,55454.71
2022-08-21T08:53:14.591Z,55431.65
2022-08-21T08:54:17.668Z,55470.75
2022-08-21T08:55:23.219Z,55489.80
2022-08-21T08:56:25.362Z,55498.83
2022-08-21T08:57:28.652Z,55495.82
2022-08-21T08:58:31.726Z,55535.93
2022-08-21T08:59:34.912Z,55487.80
2022-08-21T09:00:37.791Z,55516.87
2022-08-21T09:01:41.142Z,55524.89
2022-08-21T09:02:44.152Z,55568.01
2022-08-21T09:03:47.123Z,55548.96
2022-08-21T09:04:50.316Z,55536.93
2022-08-21T09:05:53.388Z,55550.96
2022-08-21T09:06:56.159Z,55574.03
2022-08-21T09:07:59.558Z,55600.10
2022-08-21T09:09:02.729Z,55567.01
2022-08-21T09:10:05.396Z,55558.99
2022-08-21T09:11:08.583Z,55535.93
2022-08-21T09:12:11.351Z,55531.91
2022-08-21T09:13:14.433Z,55504.84
2022-08-21T09:14:17.818Z,55529.91
2022-08-21T09:15:20.799Z,55549.96
2022-08-21T09:16:23.575Z,55508.86
2022-08-21T09:17:26.441Z,55498.83
2022-08-21T09:18:29.519Z,55517.88
2022-08-21T09:19:32.508Z,55516.87
2022-08-21T09:20:35.369Z,55475.77
2022-08-21T09:21:38.454Z,55506.85
2022-08-21T09:22:41.632Z,55487.80
2022-08-21T09:23:44.509Z,55471.75
2022-08-21T09:24:51.404Z,55476.77
2022-08-21T09:25:52.406Z,55473.76
2022-08-21T09:26:55.486Z,55483.79
2022-08-21T09:27:58.358Z,55499.83
2022-08-21T09:29:01.237Z,55520.89
2022-08-21T09:30:04.551Z,55532.92
2022-08-21T09:31:07.294Z,55539.94
2022-08-21T09:32:10.173Z,55478.77
2022-08-21T09:33:13.140Z,55495.82
2022-08-21T09:34:16.427Z,55518.88
2022-08-21T09:35:19.715Z,55443.68
2022-08-21T09:36:22.587Z,55499.83
2022-08-21T09:37:25.458Z,55479.78
2022-08-21T09:38:28.339Z,55480.78
2022-08-21T09:39:31.323Z,55492.81
2022-08-21T09:40:34.717Z,55498.83
2022-08-21T09:41:37.780Z,55474.76
2022-08-21T09:42:40.758Z,55487.80
2022-08-21T09:43:43.734Z,55505.84
2022-08-21T09:44:46.710Z,55504.84
2022-08-21T09:45:49.893Z,55474.76
2022-08-21T09:46:52.455Z,55528.91
2022-08-21T09:47:55.129Z,55545.95
2022-08-21T09:48:57.802Z,55559.99
2022-08-21T09:50:01.287Z,55533.92
2022-08-21T09:51:04.265Z,55531.91
2022-08-21T09:52:07.038Z,55558.99
2022-08-21T09:53:09.703Z,55590.07
2022-08-21T09:54:12.581Z,55570.02
2022-08-21T09:55:15.358Z,55608.12
2022-08-21T09:56:23.332Z,55616.14
2022-08-21T09:57:27.248Z,55622.16
2022-08-21T09:58:30.221Z,55620.15
2022-08-21T09:59:36.856Z,55628.18
2022-08-21T10:00:37.690Z,55604.11
2022-08-21T10:01:40.792Z,55640.20
2022-08-21T10:02:43.562Z,55628.18
2022-08-21T10:03:46.440Z,55638.20
2022-08-21T10:04:49.415Z,55670.29
2022-08-21T10:05:52.287Z,55619.15
2022-08-21T10:06:58.222Z,55618.14
2022-08-21T10:07:59.577Z,55664.27
2022-08-21T10:09:02.454Z,55648.23
2022-08-21T10:10:05.331Z,55634.19
2022-08-21T10:11:07.998Z,55688.34
2022-08-21T10:12:11.451Z,55716.41
2022-08-21T10:13:14.361Z,55701.37
2022-08-21T10:14:17.028Z,55732.46
2022-08-21T10:15:19.913Z,55725.44
2022-08-21T10:16:22.576Z,55752.51
2022-08-21T10:17:25.447Z,55773.57
2022-08-21T10:18:28.114Z,55764.54
2022-08-21T10:19:30.899Z,55757.52
2022-08-21T10:20:33.559Z,55790.62
2022-08-21T10:21:36.329Z,55772.57
2022-08-21T10:22:39.210Z,55823.71
2022-08-21T10:23:41.982Z,55810.67
2022-08-21T10:24:44.750Z,55859.80
2022-08-21T10:25:50.514Z,55876.85
2022-08-21T10:26:51.726Z,55859.80
2022-08-21T10:27:54.498Z,55912.95
2022-08-21T10:28:57.376Z,55959.08
2022-08-21T10:30:00.054Z,55961.09
2022-08-21T10:31:02.714Z,55940.03
2022-08-21T10:32:05.482Z,55892.89
2022-08-21T10:33:09.796Z,55898.91
2022-08-21T10:34:12.674Z,55893.90
2022-08-21T10:35:15.340Z,55899.92
2022-08-21T10:36:18.006Z,55846.77
2022-08-21T10:37:20.903Z,55845.77
2022-08-21T10:38:48.866Z,55824.71
2022-08-21T10:39:35.257Z,55815.68
2022-08-21T10:40:38.825Z,55762.54
2022-08-21T10:41:41.700Z,55780.59
2022-08-21T10:42:44.471Z,55808.66
2022-08-21T10:43:47.247Z,55788.61
2022-08-21T10:44:49.914Z,55792.62
2022-08-21T10:45:52.583Z,55692.35
2022-08-21T10:46:55.354Z,55713.40
2022-08-21T10:47:58.432Z,55680.31
2022-08-21T10:49:01.211Z,55681.32
2022-08-21T10:50:03.883Z,55702.37
2022-08-21T10:51:06.545Z,55650.23
2022-08-21T10:52:09.224Z,55665.27
2022-08-21T10:53:12.914Z,55684.32
2022-08-21T10:54:19.150Z,55663.27
2022-08-21T10:55:20.606Z,55622.16
2022-08-21T10:56:23.584Z,55633.19
2022-08-21T10:57:32.087Z,55629.18
2022-08-21T10:58:31.075Z,55621.15
2022-08-21T10:59:38.445Z,55621.15
2022-08-21T11:00:38.911Z,55602.10
2022-08-21T11:01:42.057Z,55632.18
2022-08-21T11:02:46.171Z,55617.14
2022-08-21T11:03:49.165Z,55612.13
2022-08-21T11:04:51.956Z,55614.14
2022-08-21T11:05:55.098Z,55606.11
2022-08-21T11:07:00.826Z,55583.05
2022-08-21T11:08:05.139Z,55577.04
2022-08-21T11:09:10.978Z,55596.09
2022-08-21T11:10:15.287Z,55579.04
2022-08-21T11:11:22.140Z,55572.02
2022-08-21T11:12:37.221Z,55591.07
2022-08-21T11:13:40.097Z,55566.01
2022-08-21T11:14:43.241Z,55559.99
2022-08-21T11:15:53.627Z,55578.04
2022-08-21T11:16:56.295Z,55570.02
2022-08-21T11:17:59.273Z,55580.04
2022-08-21T11:19:02.048Z,55613.13
2022-08-21T11:20:04.717Z,55571.02
2022-08-21T11:21:07.383Z,55562.00
2022-08-21T11:22:10.055Z,55600.10
2022-08-21T11:23:15.909Z,55637.20
2022-08-21T11:24:18.672Z,55606.11
2022-08-21T11:25:21.340Z,55637.20
2022-08-21T11:26:24.110Z,55667.28
2022-08-21T11:27:26.779Z,55644.22
2022-08-21T11:28:35.489Z,55659.26
2022-08-21T11:29:38.484Z,55666.28
2022-08-21T11:30:41.346Z,55696.36
2022-08-21T11:31:44.220Z,55662.27
2022-08-21T11:32:47.093Z,55680.31
2022-08-21T11:33:52.737Z,55662.27
2022-08-21T11:34:58.684Z,55690.34
2022-08-21T11:36:01.654Z,55727.44
2022-08-21T11:37:07.295Z,55714.41
2022-08-21T11:38:09.997Z,55707.39
2022-08-21T11:39:12.738Z,55692.35
2022-08-21T11:40:18.227Z,55762.54
2022-08-21T11:41:23.615Z,55770.56
2022-08-21T11:42:29.449Z,55770.56
2022-08-21T11:43:32.321Z,55770.56
2022-08-21T11:44:35.402Z,55755.52
2022-08-21T11:45:38.380Z,55772.57
2022-08-21T11:46:44.223Z,55748.50
2022-08-21T11:47:50.890Z,55747.50
2022-08-21T11:48:51.816Z,55745.49
2022-08-21T11:49:56.333Z,55760.54
2022-08-21T11:50:59.210Z,55784.60
2022-08-21T11:52:04.946Z,55754.52
2022-08-21T11:53:10.585Z,55775.57
2022-08-21T11:54:13.591Z,55746.50
2022-08-21T11:55:16.434Z,55773.57
2022-08-21T11:56:20.947Z,55746.50
2022-08-21T11:57:26.690Z,55811.67
2022-08-21T11:58:29.773Z,55829.72
2022-08-21T11:59:34.774Z,55859.80
2022-08-21T12:00:37.266Z,55860.81
2022-08-21T12:01:40.185Z,55858.80
2022-08-21T12:02:45.878Z,55864.82
2022-08-21T12:03:51.828Z,55873.84
2022-08-21T12:04:54.603Z,55876.85
2022-08-21T12:06:01.778Z,55873.84
2022-08-21T12:07:07.310Z,55837.75
2022-08-21T12:08:09.982Z,55876.85
2022-08-21T12:09:14.083Z,55844.76
2022-08-21T12:10:16.963Z,55885.88
2022-08-21T12:11:22.904Z,55856.80
2022-08-21T12:12:27.428Z,55894.90
2022-08-21T12:13:40.095Z,55905.93
2022-08-21T12:14:34.918Z,55936.02
2022-08-21T12:15:37.783Z,55884.87
2022-08-21T12:16:43.316Z,55873.84
2022-08-21T12:17:46.193Z,55897.91
2022-08-21T12:18:51.631Z,55900.92
2022-08-21T12:19:57.169Z,55920.97
2022-08-21T12:20:59.844Z,55941.03
2022-08-21T12:22:02.709Z,55929.00
2022-08-21T12:23:13.115Z,55941.03
2022-08-21T12:24:16.060Z,55900.92
2022-08-21T12:25:21.762Z,55939.02
2022-08-21T12:26:23.527Z,55964.09
2022-08-21T12:27:26.194Z,55967.10